Riviere-a-Claude, Canada
Current Conditions -  °F | °C
As of 2:44 PM on Wednesday 17 Dec 2014 (Local Time) from CYZV Reporting Station
Overcast Overcast  
Wind Chill: 14°   Ceiling: 1200
Heat Index: 25°   Visibility: 10mi
Dew Point: 21°   Wind: 12mph
Humidity: 86%   Direction: 50°NE
Pressure: 30.03"   Gusts: NA
Location:  49.22°N, 65.89°W
Report Text: CYZV 171944Z 05010KT 10SM BKN012 OVC023 M04/M06 A3003 RMK SC6SC2 SLP171
Loading
Personal Weather Stations






























Interactive Weather Map New forecast layout! Learn more

10-Day Weather Forecast

Advertisements
Track Severe Weather on mobile